Hossein Moharrami

Scout - Malavan
3 Dez 2028
Sonntag
Verarbeitung

Persönlichkeit

Anpassungsfähigkeit (7) Ehrgeiz (1) Kontroverse (9) Loyalität (5) Druck (10) Professionalität (1) Fairness (8) Temperament (17)

Profil

Trainerstil Demokratisch
Lizenz Nationale B
Entschlossenheit 9
Menschenführung 6
Motivation 10
Disziplin 9
Arbeitszufriedenheit
100%
Ermüdung
0%
Rolle Scout
Gehalt 17.1K p/W
Vertrag 14.03.2029

Leistung

Verhalten Gut
Trainingseffektivität
31%
Spielerentwicklung
50%
Verletzungsprävention
35%
Taktische Umsetzung
15%

Letzte Ereignisse

Empfahl ein Transferziel jetzt
Empfahl ein Transferziel jetzt
Empfahl ein Transferziel jetzt
Empfahl ein Transferziel jetzt
Empfahl ein Transferziel jetzt
Empfahl ein Transferziel jetzt
Empfahl ein Transferziel jetzt
Nahm an einer Scouting-Besprechung teil jetzt

Aktuell beobachtet

85
Spieler Verein Status Fähigkeit Vertrauen Beobachtet Zuletzt beobachtet Letzte Stimme
Rafael Perez Siah Jamegan Aktiv 74 / 79 30% 1 / 1m 06.09.2028 -
Nathan Bishop AFC Wimbledon Aktiv 124 / 126 40% 2 27.06.2028 -
Thomas Vettorel Siracusa Aktiv 102 / 106 40% 1 27.06.2028 -
Dillon Hoogewerf Radnicki 1923 Verhandlung 99 / 102 66% 1 01.06.2028 Befürworten
Ben Ahmed Kohili Paradou Verhandlung 100 / 107 66% 1 01.06.2028 Befürworten
Killian Cahill Leyton Orient Aktiv 112 / 124 40% 1 14.05.2028 -
Abderrahmane Medjadel ASO Chlef Aktiv 122 / 97 40% 1 13.05.2028 -
Timur Kraikov Sokol Aktiv 91 / 99 40% 1 13.05.2028 -
Murphy Cooper Plymouth Argyle Aktiv 130 / 118 40% 2 11.05.2028 -
Cesare Galeotti Trapani Aktiv 118 / 130 40% 2 10.05.2028 -
Valerio Boffelli Cavese Aktiv 109 / 125 40% 1 10.05.2028 -
Jordan Amissah Burton Albion Aktiv 117 / 108 40% 2 07.05.2028 Mehr Infos nötig
Josh Keeley Luton Town Aktiv 132 / 138 40% 4 06.05.2028 -
Lautaro Porres Septemvri Aktiv 86 / 92 40% 2 06.05.2028 -
Michele Cerofolini Empoli Aktiv 126 / 136 40% 2 05.05.2028 -
Anthony Patterson Wrexham Aktiv 128 / 130 40% 2 03.05.2028 -
Amir Hossein Nikpour Esteghlal Ahvaz Aktiv 100 / 107 40% 1 02.05.2028 -
Gabriele Baldi Guidonia Montecelio Aktiv 108 / 123 40% 1 02.05.2028 -
Ruslan Neshcheret Oleksandriya Aktiv 132 / 115 40% 1 01.05.2028 -
Stefano Filigheddu Monopoli Aktiv 120 / 113 40% 1 28.04.2028 -
Matteo Sorzi Carpi Aktiv 117 / 114 40% 1 28.04.2028 -
Filip Marschall Stevenage Aktiv 128 / 116 40% 1 27.04.2028 -
Arthur Beroe Aktiv 121 / 111 40% 1 26.04.2028 -
Matteo Raffaelli Ascoli Aktiv 117 / 108 40% 1 22.04.2028 -
Fran Vieites Walsall Aktiv 136 / 121 40% 1 22.04.2028 -
Sol Brynn Bradford City Aktiv 137 / 132 40% 5 20.04.2028 -
Felix Kyei Medeama Aktiv 107 / 115 40% 1 20.04.2028 -
George Evans Exeter City Aktiv 110 / 111 40% 1 18.04.2028 -
Gladson Amoah Liberty Professionals Aktiv 112 / 104 40% 2 15.04.2028 -
Sergio Barlocco Trento Aktiv 126 / 131 40% 1 12.04.2028 -
Dmytro Matsapura Kryvbas Aktiv 126 / 130 40% 1 12.04.2028 -
Bogdan Ovsyannikov Orenburg Aktiv 127 / 97 40% 1 11.04.2028 -
Will Dennis Milton Keynes Dons Aktiv 119 / 127 40% 2 09.04.2028 -
Will Mannion Charlton Athletic Aktiv 130 / 123 40% 1 09.04.2028 -
William Rovida Pro Patria Aktiv 123 / 106 40% 1 08.04.2028 -
Amirreza Changalvaei Sepahan Aktiv 84 / 109 55% 1 24.01.2028 -
Ivan Lomaev Ufa Aktiv 111 / 109 40% 1 24.01.2028 -
Fabrizio Correa Juventud Aktiv 140 / 116 40% 5 17.01.2028 -
Moisés Gallo Aragua Aktiv 85 / 115 40% 3 17.01.2028 -
Ilja Zhbanov Cobresal Verhandlung 91 / 95 91% 1 01.01.2028 Befürworten
Isaac Partey Sol de America Aktiv 108 / 109 66% 1 01.01.2028 Befürworten
David Boateng Cobresal Aktiv 95 / 95 66% 1 01.01.2028 Befürworten
Evgeny Latyshonok Nizhniy Novgorod Aktiv 126 / 119 40% 1 08.12.2027 Mehr Infos nötig
Ali Ishaku Abia Warriors Aktiv 85 / 99 40% 1 08.12.2027 -
Pontus Dahlberg Lillestrom Aktiv 124 / 106 40% 2 06.12.2027 Mehr Infos nötig
Facundo Vila Estudiantes Aktiv 97 / 116 40% 2 06.12.2027 -
Vincent Edafe Warri Wolves Aktiv 87 / 81 40% 2 05.12.2027 -
Joaquín Bigo Tristán Suárez Aktiv 109 / 118 40% 2 05.12.2027 -
Chisom Chiaha Barau Aktiv 109 / 102 40% 1 03.12.2027 -
Ikenna Benjamin Bayelsa United Aktiv 91 / 72 40% 3 02.12.2027 -
Mattias Lamhauge Stromsgodset Aktiv 91 / 123 40% 2 02.12.2027 -
Mauro Casoli Talleres Aktiv 110 / 116 40% 2 30.11.2027 -
Elias Hadaya Sandefjord Aktiv 136 / 135 40% 1 30.11.2027 -
Cristopher Varela Deportivo La Guaira Aktiv 115 / 142 40% 3 26.11.2027 -
Lautaro Petruchi Gimnasia y Esgrima Aktiv 102 / 120 40% 2 26.11.2027 -
Frankarlos Benítez Caracas Aktiv 122 / 105 40% 2 24.11.2027 -
Oscar Hedvall Valerenga Aktiv 122 / 106 40% 2 24.11.2027 -
Francisco Salerno Defensores Unidos Aktiv 107 / 108 40% 3 21.11.2027 -
Vladan Kovačević Norwich City Aktiv 118 / 117 40% 1 21.11.2027 -
Luciano Jachfe Nueva Chicago Aktiv 120 / 122 40% 2 20.11.2027 -
Emiliano González Almagro Aktiv 124 / 126 40% 3 17.11.2027 -
Ameh Godwin Nasarawa United Aktiv 111 / 101 40% 1 10.11.2027 -
Agustín Buffa Wanderers Aktiv 84 / 88 40% 2 05.11.2027 -
Federico Losas Chacarita Juniors Aktiv 118 / 134 40% 4 04.11.2027 -
Renzo Bacchia Racing Aktiv 136 / 137 40% 1 04.11.2027 -
Juan Moreno La Luz Aktiv 128 / 127 40% 3 02.11.2027 -
Nicolás Sumavil Platense Aktiv 102 / 134 40% 4 02.11.2027 -
Ani Ozoemena Rivers United Aktiv 86 / 99 40% 1 30.10.2027 -
John Amah Plateau United Aktiv 119 / 115 40% 1 29.10.2027 -
Rafael Sánchez Estudiantes de Caracas Aktiv 105 / 75 40% 1 28.10.2027 -
Yeferson Cordova Llaneros Aktiv 91 / 122 40% 1 27.10.2027 -
Iván Chaves Patronato Aktiv 105 / 108 40% 1 23.10.2027 -
Bruno Antúnez Boston River Aktiv 119 / 109 40% 3 22.10.2027 -
Biola Sabitu Remo Stars Aktiv 86 / 122 40% 1 21.10.2027 -
Ifeanyi Emmanuel Niger Tornadoes Aktiv 112 / 114 40% 1 19.10.2027 -
Franco Carretero Deportivo Lara Aktiv 98 / 93 40% 1 18.10.2027 -
Leopold Wahlstedt Rosenborg Aktiv 118 / 143 40% 2 14.10.2027 -
Lautaro Maldonado Instituto Aktiv 111 / 109 40% 1 13.10.2027 -
Michael Atata Ikorodu City Aktiv 96 / 81 40% 2 10.10.2027 -
Mustapha Lawal Shooting Stars Aktiv 81 / 101 40% 1 06.10.2027 -
Esteban Glellel Quilmes Aktiv 105 / 137 40% 1 05.10.2027 -
Santiago Rodríguez Fenix Aktiv 91 / 109 40% 1 05.10.2027 -
Kirill Veidyger Neman Aktiv 79 / 86 40% 1 04.10.2027 -
Agustín Olavarría Colon Aktiv 103 / 106 40% 1 06.09.2027 -
Samuel Asamoah Racing Aktiv 104 / 110 66% 1 01.06.2027 Befürworten